Huvudsida
METAR-TAF:

METAR-TAF

Flygplatser :

Jyväskylä, Finland

Jyväskylä flygplats

latitud: 62-24N, longitud: 025-41E, höjd: 141 m

Aktuellt väderrapport

Denna rapport gjordes för 35 minuter sedan, klockan 17:50 UTC
Vind 3 kt från syd/sydost
Temperatur 2°C
Fuktighet 64%
Tryck 1015 hPa
Sikt 10 km eller mer
Inga moln under 1 500 m eller inga cumulonimbus

METAR: EFJY 221750Z AUTO 15003KT CAVOK 02/M04 Q1015

Tid: 21:25 (18:25 UTC)

Väderprognos

Denna rapport gjordes för 48 minuter sedan, klockan 17:37 UTC
Prognos gäller från 22 kl. 18 UTC till 23 kl. 18 UTC
Vind 4 kt från ost/sydost
Sikt 10 km eller mer
Inga moln under 1 500 m eller inga cumulonimbus
Blir
från 23 kl. 07 UTC till 23 kl. 09 UTC
Vind 10 kt från syd

TAF: EFJY 221737Z 2218/2318 11004KT CAVOK BECMG 2307/2309 18010KT

Aktuella väderrapporter och prognoser från 4000 flygplatser (METAR- och TAF-rapporter).

De tillgängliga stationerna syns som gula och röda prickar på kartan.

För musen över prickarna för att se namnen på stationerna.

Klicka sedan för att få väderrapporter och prognoser.

För att ändra kartan: Klicka på de gröna knapparna med ett svart kors på för att zooma in; den gröna knappen med ett streck på för att zooma ut; eller på de gröna pilarna för angränsande kartor.


METAR-TAF: